createdAt,value
2022-11-19T00:01:27.015Z,8.2
2022-11-19T00:06:30.547Z,8.3
2022-11-19T00:11:35.112Z,8.2
2022-11-19T00:16:39.612Z,8.2
2022-11-19T00:21:44.166Z,8.2
2022-11-19T00:26:47.733Z,8.2
2022-11-19T00:31:52.270Z,8.2
2022-11-19T00:36:56.762Z,8.2
2022-11-19T00:42:00.346Z,8.2
2022-11-19T00:47:04.889Z,8.2
2022-11-19T00:52:09.382Z,8.2
2022-11-19T00:57:12.965Z,8.3
2022-11-19T01:02:17.511Z,8.3
2022-11-19T01:07:22.082Z,8.4
2022-11-19T01:12:25.617Z,8.3
2022-11-19T01:17:30.115Z,8.2
2022-11-19T01:22:33.655Z,8.3
2022-11-19T01:27:38.237Z,8.3
2022-11-19T01:32:42.758Z,8.2
2022-11-19T01:37:46.285Z,8.2
2022-11-19T01:42:50.833Z,8.1
2022-11-19T01:47:55.318Z,8.1
2022-11-19T01:52:58.907Z,8.2
2022-11-19T01:58:03.463Z,8.2
2022-11-19T02:03:07.985Z,8.2
2022-11-19T02:08:12.531Z,8.1
2022-11-19T02:13:16.073Z,8.1
2022-11-19T02:18:20.573Z,8.1
2022-11-19T02:23:25.117Z,8
2022-11-19T02:28:28.687Z,8
2022-11-19T02:33:33.350Z,8
2022-11-19T02:38:37.763Z,8
2022-11-19T02:43:41.306Z,8
2022-11-19T02:48:45.830Z,7.9
2022-11-19T02:53:50.367Z,7.8
2022-11-19T02:58:53.922Z,7.6
2022-11-19T03:03:58.445Z,7.4
2022-11-19T03:09:03.007Z,7.3
2022-11-19T03:14:07.517Z,7.3
2022-11-19T03:19:12.302Z,7.2
2022-11-19T03:24:16.697Z,7.2
2022-11-19T03:29:21.545Z,7
2022-11-19T03:34:24.764Z,6.9
2022-11-19T03:39:29.288Z,6.9
2022-11-19T03:44:33.919Z,6.8
2022-11-19T03:49:37.382Z,6.7
2022-11-19T03:54:41.950Z,6.7
2022-11-19T03:59:46.505Z,6.7
2022-11-19T04:04:50.026Z,6.6
2022-11-19T04:09:54.553Z,6.5
2022-11-19T04:14:59.152Z,6.4
2022-11-19T04:20:03.618Z,6.4
2022-11-19T04:25:07.180Z,6.3
2022-11-19T04:30:11.769Z,6.3
2022-11-19T04:35:16.261Z,6.2
2022-11-19T04:40:19.784Z,6.2
2022-11-19T04:45:24.363Z,6.2
2022-11-19T04:50:28.839Z,6.1
2022-11-19T04:55:32.420Z,6.1
2022-11-19T05:00:36.977Z,6.1
2022-11-19T05:05:41.465Z,6.1
2022-11-19T05:10:45.051Z,6.1
2022-11-19T05:15:49.591Z,6
2022-11-19T05:20:54.076Z,6
2022-11-19T05:25:58.663Z,6
2022-11-19T05:31:02.190Z,6
2022-11-19T05:36:05.754Z,6
2022-11-19T05:41:10.269Z,5.9
2022-11-19T05:46:14.813Z,5.9
2022-11-19T05:51:18.363Z,5.9
2022-11-19T05:56:22.906Z,5.9
2022-11-19T06:01:27.467Z,5.9
2022-11-19T06:06:31.974Z,5.9
2022-11-19T06:11:35.526Z,5.9
2022-11-19T06:16:40.090Z,5.9
2022-11-19T06:21:44.593Z,5.9
2022-11-19T06:26:48.120Z,5.8
2022-11-19T06:31:52.687Z,5.8
2022-11-19T06:36:57.251Z,5.8
2022-11-19T06:42:00.776Z,5.7
2022-11-19T06:47:05.379Z,5.7
2022-11-19T06:52:09.849Z,5.7
2022-11-19T06:57:13.387Z,5.7
2022-11-19T07:02:21.382Z,5.7
2022-11-19T07:07:22.530Z,5.7
2022-11-19T07:12:27.029Z,5.7
2022-11-19T07:17:30.560Z,5.7
2022-11-19T07:22:35.122Z,5.7
2022-11-19T07:27:39.654Z,5.7
2022-11-19T07:32:43.246Z,5.7
2022-11-19T07:37:47.749Z,5.7
2022-11-19T07:42:52.268Z,5.7
2022-11-19T07:47:55.833Z,5.8
2022-11-19T07:53:00.330Z,5.7
2022-11-19T07:58:04.894Z,5.8
2022-11-19T08:03:08.457Z,5.8
2022-11-19T08:08:12.973Z,5.8
2022-11-19T08:13:17.504Z,5.8
2022-11-19T08:18:22.469Z,5.8
2022-11-19T08:23:25.624Z,5.8
2022-11-19T08:28:30.126Z,5.7
2022-11-19T08:33:34.697Z,5.8
2022-11-19T08:38:38.923Z,5.8
2022-11-19T08:43:42.747Z,5.8
2022-11-19T08:48:47.298Z,5.8
2022-11-19T08:53:50.813Z,5.8
2022-11-19T08:58:59.873Z,5.8
2022-11-19T09:03:59.955Z,5.8
2022-11-19T09:09:03.457Z,5.8
2022-11-19T09:14:07.988Z,5.9
2022-11-19T09:19:12.540Z,5.9
2022-11-19T09:24:17.420Z,5.9
2022-11-19T09:29:20.607Z,5.9
2022-11-19T09:34:25.149Z,5.9
2022-11-19T09:39:29.651Z,6
2022-11-19T09:44:33.201Z,6
2022-11-19T09:49:36.803Z,6
2022-11-19T09:54:41.327Z,6
2022-11-19T09:59:45.851Z,6
2022-11-19T10:04:50.407Z,6
2022-11-19T10:09:53.939Z,6.1
2022-11-19T10:14:58.472Z,6.1
2022-11-19T10:20:03.021Z,6
2022-11-19T10:25:06.592Z,6
2022-11-19T10:30:11.052Z,6.1
2022-11-19T10:35:15.660Z,6
2022-11-19T10:40:19.178Z,6
2022-11-19T10:45:23.700Z,6
2022-11-19T10:50:28.244Z,6
2022-11-19T10:55:31.793Z,5.9
2022-11-19T11:00:36.343Z,5.9
2022-11-19T11:05:40.878Z,6
2022-11-19T11:10:45.378Z,5.8
2022-11-19T11:15:48.917Z,5.9
2022-11-19T11:20:53.495Z,5.8
2022-11-19T11:25:57.987Z,5.9
2022-11-19T11:31:01.540Z,5.9
2022-11-19T11:36:06.132Z,6
2022-11-19T11:46:14.211Z,5.9
2022-11-19T11:51:18.743Z,5.9
2022-11-19T11:56:23.235Z,5.9
2022-11-19T12:01:26.826Z,5.9
2022-11-19T12:06:31.328Z,5.9
2022-11-19T12:11:35.865Z,5.9
2022-11-19T12:16:40.382Z,5.8
2022-11-19T12:21:44.045Z,5.9
2022-11-19T12:26:48.470Z,5.8
2022-11-19T12:31:53.032Z,5.8
2022-11-19T12:36:56.628Z,5.8
2022-11-19T12:42:01.081Z,5.8
2022-11-19T12:47:05.649Z,5.9
2022-11-19T12:52:09.180Z,5.8
2022-11-19T12:57:13.713Z,5.9
2022-11-19T13:02:18.257Z,5.9
2022-11-19T13:07:21.861Z,5.8
2022-11-19T13:12:26.356Z,5.8
2022-11-19T13:17:30.860Z,5.7
2022-11-19T13:22:35.432Z,5.8
2022-11-19T13:27:38.967Z,5.8
2022-11-19T13:32:43.529Z,5.7
2022-11-19T13:37:48.053Z,5.7
2022-11-19T13:43:17.224Z,5.7
2022-11-19T13:47:58.230Z,5.8
2022-11-19T13:53:00.649Z,5.8
2022-11-19T13:58:05.305Z,5.7
2022-11-19T14:03:09.873Z,5.8
2022-11-19T14:08:13.395Z,5.8
2022-11-19T14:13:17.927Z,5.7
2022-11-19T14:18:22.479Z,5.8
2022-11-19T14:23:26.127Z,5.7
2022-11-19T14:28:30.553Z,5.7
2022-11-19T14:33:35.110Z,5.7
2022-11-19T14:38:38.744Z,5.7
2022-11-19T14:43:43.197Z,5.7
2022-11-19T14:48:47.740Z,5.6
2022-11-19T14:53:51.292Z,5.7
2022-11-19T14:58:55.829Z,5.7
2022-11-19T15:04:00.392Z,5.7
2022-11-19T15:09:05.088Z,5.7
2022-11-19T15:14:08.409Z,5.7
2022-11-19T15:19:12.954Z,5.6
2022-11-19T15:24:17.703Z,5.7
2022-11-19T15:29:21.289Z,5.6
2022-11-19T15:34:25.579Z,5.7
2022-11-19T15:39:30.131Z,5.7
2022-11-19T15:44:33.658Z,5.7
2022-11-19T15:49:38.208Z,5.7
2022-11-19T15:54:42.776Z,5.6
2022-11-19T15:59:46.277Z,5.6
2022-11-19T16:04:50.840Z,5.6
2022-11-19T16:09:55.390Z,5.6
2022-11-19T16:14:59.875Z,5.6
2022-11-19T16:20:03.426Z,5.6
2022-11-19T16:25:08.015Z,5.6
2022-11-19T16:30:12.528Z,5.6
2022-11-19T16:35:16.063Z,5.6
2022-11-19T16:40:20.619Z,5.6
2022-11-19T16:45:25.163Z,5.7
2022-11-19T16:50:28.699Z,5.6
2022-11-19T16:55:33.285Z,5.7
2022-11-19T17:00:37.762Z,5.6
2022-11-19T17:05:41.288Z,5.6
2022-11-19T17:10:45.878Z,5.6
2022-11-19T17:15:50.355Z,5.6
2022-11-19T17:20:54.893Z,5.7
2022-11-19T17:25:58.482Z,5.6
2022-11-19T17:31:02.980Z,5.6
2022-11-19T17:36:07.562Z,5.7
2022-11-19T17:41:11.175Z,5.6
2022-11-19T17:46:15.632Z,5.7
2022-11-19T17:51:20.161Z,5.7
2022-11-19T17:56:23.746Z,5.7
2022-11-19T18:01:28.335Z,5.6
2022-11-19T18:06:32.776Z,5.6
2022-11-19T18:11:36.331Z,5.6
2022-11-19T18:16:40.850Z,5.5
2022-11-19T18:21:44.402Z,5.5
2022-11-19T18:26:48.975Z,5.5
2022-11-19T18:31:53.515Z,5.5
2022-11-19T18:36:57.039Z,5.5
2022-11-19T18:42:01.661Z,5.5
2022-11-19T18:47:06.213Z,5.5
2022-11-19T18:52:09.739Z,5.5
2022-11-19T18:57:14.257Z,5.5
2022-11-19T19:02:18.805Z,5.5
2022-11-19T19:07:23.413Z,5.5
2022-11-19T19:12:28.045Z,5.5
2022-11-19T19:17:32.502Z,5.4
2022-11-19T19:22:37.090Z,5.4
2022-11-19T19:27:40.611Z,5.4
2022-11-19T19:32:45.164Z,5.4
2022-11-19T19:37:49.690Z,5.4
2022-11-19T19:42:53.262Z,5.4
2022-11-19T19:47:57.738Z,5.4
2022-11-19T19:53:02.313Z,5.4
2022-11-19T19:58:05.908Z,5.3
2022-11-19T20:03:10.364Z,5.3
2022-11-19T20:08:14.939Z,5.3
2022-11-19T20:13:19.466Z,5.3
2022-11-19T20:18:23.093Z,5.3
2022-11-19T20:23:27.558Z,5.2
2022-11-19T20:28:32.127Z,5.3
2022-11-19T20:33:35.598Z,5.3
2022-11-19T20:38:40.186Z,5.2
2022-11-19T20:43:50.072Z,5.3
2022-11-19T20:48:49.377Z,5.3
2022-11-19T20:53:53.912Z,5.2
2022-11-19T20:58:58.458Z,5.3
2022-11-19T21:04:01.992Z,5.3
2022-11-19T21:09:06.540Z,5.3
2022-11-19T21:14:11.067Z,5.3
2022-11-19T21:19:15.675Z,5.3
2022-11-19T21:24:19.182Z,5.3
2022-11-19T21:29:23.997Z,5.3
2022-11-19T21:34:28.375Z,5.3
2022-11-19T21:39:31.830Z,5.3
2022-11-19T21:44:36.390Z,5.3
2022-11-19T21:49:41.002Z,5.3
2022-11-19T21:54:44.428Z,5.3
2022-11-19T21:59:49.005Z,5.3
2022-11-19T22:04:53.517Z,5.3
2022-11-19T22:09:57.050Z,5.4
2022-11-19T22:15:01.680Z,5.3
2022-11-19T22:20:06.148Z,5.4
2022-11-19T22:25:10.640Z,5.3
2022-11-19T22:30:14.239Z,5.3
2022-11-19T22:35:17.793Z,5.3
2022-11-19T22:40:22.321Z,5.3
2022-11-19T22:45:26.879Z,5.4
2022-11-19T22:50:30.371Z,5.3
2022-11-19T22:55:34.949Z,5.3
2022-11-19T23:00:39.558Z,5.3
2022-11-19T23:05:44.034Z,5.3
2022-11-19T23:10:47.563Z,5.3
2022-11-19T23:15:52.116Z,5.3
2022-11-19T23:20:56.634Z,5.3
2022-11-19T23:26:00.219Z,5.3
2022-11-19T23:31:04.708Z,5.3
2022-11-19T23:36:09.238Z,5.3
2022-11-19T23:41:12.803Z,5.3
2022-11-19T23:46:17.342Z,5.3
2022-11-19T23:51:21.860Z,5.3
2022-11-19T23:56:25.405Z,5.3
